sensor_id;sensor_type;location;lat;lon;timestamp;P1;durP1;ratioP1;P2;durP2;ratioP2
35042;SDS011;21230;51.170;17.024;2023-04-25T00:01:57;2.83;;;2.13;;
35042;SDS011;21230;51.170;17.024;2023-04-25T00:04:24;2.05;;;1.77;;
35042;SDS011;21230;51.170;17.024;2023-04-25T00:06:53;10.52;;;1.88;;
35042;SDS011;21230;51.170;17.024;2023-04-25T00:09:19;3.10;;;2.00;;
35042;SDS011;21230;51.170;17.024;2023-04-25T00:11:46;7.30;;;2.03;;
35042;SDS011;21230;51.170;17.024;2023-04-25T00:14:12;2.55;;;1.60;;
35042;SDS011;21230;51.170;17.024;2023-04-25T00:16:37;2.92;;;1.60;;
35042;SDS011;21230;51.170;17.024;2023-04-25T00:19:04;2.13;;;1.58;;
35042;SDS011;21230;51.170;17.024;2023-04-25T00:21:30;4.72;;;1.30;;
35042;SDS011;21230;51.170;17.024;2023-04-25T00:23:56;1.75;;;1.13;;
35042;SDS011;21230;51.170;17.024;2023-04-25T00:26:22;7.50;;;1.60;;
35042;SDS011;21230;51.170;17.024;2023-04-25T00:28:48;9.45;;;1.80;;
35042;SDS011;21230;51.170;17.024;2023-04-25T00:31:14;1.83;;;1.38;;
35042;SDS011;21230;51.170;17.024;2023-04-25T00:33:40;6.50;;;1.23;;
35042;SDS011;21230;51.170;17.024;2023-04-25T00:36:06;1.73;;;1.50;;
35042;SDS011;21230;51.170;17.024;2023-04-25T00:38:32;3.50;;;2.10;;
35042;SDS011;21230;51.170;17.024;2023-04-25T00:40:58;2.83;;;1.55;;
35042;SDS011;21230;51.170;17.024;2023-04-25T00:43:27;2.40;;;1.70;;
35042;SDS011;21230;51.170;17.024;2023-04-25T00:45:55;2.08;;;1.27;;
35042;SDS011;21230;51.170;17.024;2023-04-25T00:48:22;3.42;;;1.58;;
35042;SDS011;21230;51.170;17.024;2023-04-25T00:50:52;1.45;;;1.35;;
35042;SDS011;21230;51.170;17.024;2023-04-25T00:53:20;6.43;;;1.58;;
35042;SDS011;21230;51.170;17.024;2023-04-25T00:55:46;1.92;;;1.30;;
35042;SDS011;21230;51.170;17.024;2023-04-25T00:58:16;1.98;;;1.35;;
35042;SDS011;21230;51.170;17.024;2023-04-25T01:00:47;2.42;;;1.80;;
35042;SDS011;21230;51.170;17.024;2023-04-25T01:03:17;2.47;;;1.60;;
35042;SDS011;21230;51.170;17.024;2023-04-25T01:05:46;4.53;;;1.88;;
35042;SDS011;21230;51.170;17.024;2023-04-25T01:08:16;5.18;;;1.42;;
35042;SDS011;21230;51.170;17.024;2023-04-25T01:10:41;3.00;;;1.65;;
35042;SDS011;21230;51.170;17.024;2023-04-25T01:13:07;3.45;;;1.83;;
35042;SDS011;21230;51.170;17.024;2023-04-25T01:15:33;2.03;;;1.83;;
35042;SDS011;21230;51.170;17.024;2023-04-25T01:18:03;2.22;;;1.80;;
35042;SDS011;21230;51.170;17.024;2023-04-25T01:20:30;3.25;;;1.73;;
35042;SDS011;21230;51.170;17.024;2023-04-25T01:22:57;4.25;;;2.15;;
35042;SDS011;21230;51.170;17.024;2023-04-25T01:25:23;1.27;;;1.17;;
35042;SDS011;21230;51.170;17.024;2023-04-25T01:27:50;4.75;;;2.42;;
35042;SDS011;21230;51.170;17.024;2023-04-25T01:30:15;3.67;;;1.88;;
35042;SDS011;21230;51.170;17.024;2023-04-25T01:32:42;1.48;;;1.38;;
35042;SDS011;21230;51.170;17.024;2023-04-25T01:35:10;2.75;;;1.45;;
35042;SDS011;21230;51.170;17.024;2023-04-25T01:37:37;2.75;;;2.28;;
35042;SDS011;21230;51.170;17.024;2023-04-25T01:40:07;1.38;;;1.27;;
35042;SDS011;21230;51.170;17.024;2023-04-25T01:42:36;4.88;;;1.92;;
35042;SDS011;21230;51.170;17.024;2023-04-25T01:45:03;2.20;;;1.95;;
35042;SDS011;21230;51.170;17.024;2023-04-25T01:47:30;3.17;;;2.70;;
35042;SDS011;21230;51.170;17.024;2023-04-25T01:49:56;4.07;;;2.47;;
35042;SDS011;21230;51.170;17.024;2023-04-25T01:52:28;3.60;;;2.50;;
35042;SDS011;21230;51.170;17.024;2023-04-25T01:55:07;4.20;;;2.10;;
35042;SDS011;21230;51.170;17.024;2023-04-25T01:57:49;6.13;;;2.70;;
35042;SDS011;21230;51.170;17.024;2023-04-25T02:01:02;3.05;;;2.40;;
35042;SDS011;21230;51.170;17.024;2023-04-25T02:03:38;4.10;;;2.85;;
35042;SDS011;21230;51.170;17.024;2023-04-25T02:07:00;5.20;;;2.85;;
35042;SDS011;21230;51.170;17.024;2023-04-25T02:12:35;4.90;;;3.05;;
35042;SDS011;21230;51.170;17.024;2023-04-25T02:15:01;3.88;;;2.80;;
35042;SDS011;21230;51.170;17.024;2023-04-25T02:17:31;3.17;;;2.70;;
35042;SDS011;21230;51.170;17.024;2023-04-25T02:20:00;4.15;;;2.90;;
35042;SDS011;21230;51.170;17.024;2023-04-25T02:22:49;3.53;;;2.42;;
35042;SDS011;21230;51.170;17.024;2023-04-25T02:25:22;6.15;;;2.97;;
35042;SDS011;21230;51.170;17.024;2023-04-25T02:27:48;6.82;;;3.30;;
35042;SDS011;21230;51.170;17.024;2023-04-25T02:30:15;4.03;;;3.13;;
35042;SDS011;21230;51.170;17.024;2023-04-25T02:32:41;3.92;;;2.65;;
35042;SDS011;21230;51.170;17.024;2023-04-25T02:35:07;14.38;;;6.13;;
35042;SDS011;21230;51.170;17.024;2023-04-25T02:37:34;10.13;;;5.13;;
35042;SDS011;21230;51.170;17.024;2023-04-25T02:40:00;4.65;;;4.03;;
35042;SDS011;21230;51.170;17.024;2023-04-25T02:42:28;5.28;;;4.07;;
35042;SDS011;21230;51.170;17.024;2023-04-25T02:44:53;6.82;;;3.75;;
35042;SDS011;21230;51.170;17.024;2023-04-25T02:47:20;4.97;;;3.72;;
35042;SDS011;21230;51.170;17.024;2023-04-25T02:49:46;7.32;;;3.95;;
35042;SDS011;21230;51.170;17.024;2023-04-25T02:52:12;8.00;;;4.78;;
35042;SDS011;21230;51.170;17.024;2023-04-25T02:54:38;7.45;;;4.10;;
35042;SDS011;21230;51.170;17.024;2023-04-25T02:57:05;4.18;;;3.28;;
35042;SDS011;21230;51.170;17.024;2023-04-25T02:59:35;4.28;;;3.30;;
35042;SDS011;21230;51.170;17.024;2023-04-25T03:02:01;5.85;;;3.72;;
35042;SDS011;21230;51.170;17.024;2023-04-25T03:04:27;7.30;;;4.47;;
35042;SDS011;21230;51.170;17.024;2023-04-25T03:06:53;6.18;;;3.80;;
35042;SDS011;21230;51.170;17.024;2023-04-25T03:09:19;5.25;;;4.00;;
35042;SDS011;21230;51.170;17.024;2023-04-25T03:11:45;5.80;;;4.55;;
35042;SDS011;21230;51.170;17.024;2023-04-25T03:14:12;6.47;;;4.50;;
35042;SDS011;21230;51.170;17.024;2023-04-25T03:16:38;11.55;;;4.80;;
35042;SDS011;21230;51.170;17.024;2023-04-25T03:19:05;8.52;;;4.38;;
35042;SDS011;21230;51.170;17.024;2023-04-25T03:21:31;5.80;;;3.97;;
35042;SDS011;21230;51.170;17.024;2023-04-25T03:23:58;5.05;;;3.80;;
35042;SDS011;21230;51.170;17.024;2023-04-25T03:26:25;5.53;;;3.45;;
35042;SDS011;21230;51.170;17.024;2023-04-25T03:28:51;7.22;;;3.90;;
35042;SDS011;21230;51.170;17.024;2023-04-25T03:31:17;5.45;;;3.60;;
35042;SDS011;21230;51.170;17.024;2023-04-25T03:33:42;5.40;;;4.07;;
35042;SDS011;21230;51.170;17.024;2023-04-25T03:36:08;6.40;;;4.25;;
35042;SDS011;21230;51.170;17.024;2023-04-25T03:38:34;7.10;;;3.97;;
35042;SDS011;21230;51.170;17.024;2023-04-25T03:41:01;6.90;;;4.20;;
35042;SDS011;21230;51.170;17.024;2023-04-25T03:43:27;8.77;;;4.47;;
35042;SDS011;21230;51.170;17.024;2023-04-25T03:45:53;10.57;;;4.78;;
35042;SDS011;21230;51.170;17.024;2023-04-25T03:48:19;8.82;;;5.47;;
35042;SDS011;21230;51.170;17.024;2023-04-25T03:50:52;6.53;;;4.13;;
35042;SDS011;21230;51.170;17.024;2023-04-25T03:53:18;12.48;;;5.60;;
35042;SDS011;21230;51.170;17.024;2023-04-25T03:55:44;8.63;;;3.97;;
35042;SDS011;21230;51.170;17.024;2023-04-25T03:58:10;9.57;;;4.93;;
35042;SDS011;21230;51.170;17.024;2023-04-25T04:00:36;7.80;;;5.68;;
35042;SDS011;21230;51.170;17.024;2023-04-25T04:03:02;9.40;;;5.78;;
35042;SDS011;21230;51.170;17.024;2023-04-25T04:05:28;8.27;;;4.22;;
35042;SDS011;21230;51.170;17.024;2023-04-25T04:07:54;9.00;;;5.47;;
35042;SDS011;21230;51.170;17.024;2023-04-25T04:10:20;14.82;;;5.28;;
35042;SDS011;21230;51.170;17.024;2023-04-25T04:12:46;12.45;;;5.10;;
35042;SDS011;21230;51.170;17.024;2023-04-25T04:15:12;11.02;;;5.65;;
35042;SDS011;21230;51.170;17.024;2023-04-25T04:17:38;11.68;;;5.32;;
35042;SDS011;21230;51.170;17.024;2023-04-25T04:20:08;15.02;;;6.25;;
35042;SDS011;21230;51.170;17.024;2023-04-25T04:22:34;10.43;;;6.53;;
35042;SDS011;21230;51.170;17.024;2023-04-25T04:25:00;11.07;;;5.53;;
35042;SDS011;21230;51.170;17.024;2023-04-25T04:27:30;10.23;;;6.55;;
35042;SDS011;21230;51.170;17.024;2023-04-25T04:29:56;10.88;;;7.05;;
35042;SDS011;21230;51.170;17.024;2023-04-25T04:32:22;9.05;;;5.45;;
35042;SDS011;21230;51.170;17.024;2023-04-25T04:34:49;7.50;;;5.07;;
35042;SDS011;21230;51.170;17.024;2023-04-25T04:37:14;11.05;;;5.38;;
35042;SDS011;21230;51.170;17.024;2023-04-25T04:39:44;11.10;;;5.95;;
35042;SDS011;21230;51.170;17.024;2023-04-25T04:42:32;13.40;;;5.85;;
35042;SDS011;21230;51.170;17.024;2023-04-25T04:44:58;11.38;;;6.72;;
35042;SDS011;21230;51.170;17.024;2023-04-25T04:47:35;8.45;;;5.47;;
35042;SDS011;21230;51.170;17.024;2023-04-25T04:50:02;8.70;;;5.05;;
35042;SDS011;21230;51.170;17.024;2023-04-25T04:52:29;9.27;;;6.05;;
35042;SDS011;21230;51.170;17.024;2023-04-25T04:55:00;15.38;;;6.10;;
35042;SDS011;21230;51.170;17.024;2023-04-25T04:57:26;12.30;;;5.70;;
35042;SDS011;21230;51.170;17.024;2023-04-25T05:00:00;12.15;;;6.32;;
35042;SDS011;21230;51.170;17.024;2023-04-25T05:05:20;16.23;;;6.68;;
35042;SDS011;21230;51.170;17.024;2023-04-25T05:07:52;17.60;;;6.38;;
35042;SDS011;21230;51.170;17.024;2023-04-25T05:10:24;10.20;;;5.43;;
35042;SDS011;21230;51.170;17.024;2023-04-25T05:12:50;12.50;;;6.45;;
35042;SDS011;21230;51.170;17.024;2023-04-25T05:15:19;12.05;;;6.00;;
35042;SDS011;21230;51.170;17.024;2023-04-25T05:17:48;9.20;;;6.22;;
35042;SDS011;21230;51.170;17.024;2023-04-25T05:20:14;7.53;;;5.85;;
35042;SDS011;21230;51.170;17.024;2023-04-25T05:22:41;10.55;;;5.95;;
35042;SDS011;21230;51.170;17.024;2023-04-25T05:25:07;11.48;;;6.93;;
35042;SDS011;21230;51.170;17.024;2023-04-25T05:27:34;10.05;;;6.05;;
35042;SDS011;21230;51.170;17.024;2023-04-25T05:30:00;11.00;;;5.78;;
35042;SDS011;21230;51.170;17.024;2023-04-25T05:32:26;10.40;;;5.45;;
35042;SDS011;21230;51.170;17.024;2023-04-25T05:34:52;8.80;;;5.68;;
35042;SDS011;21230;51.170;17.024;2023-04-25T05:37:18;11.65;;;5.30;;
35042;SDS011;21230;51.170;17.024;2023-04-25T05:39:44;11.30;;;5.55;;
35042;SDS011;21230;51.170;17.024;2023-04-25T05:42:10;11.48;;;5.63;;
35042;SDS011;21230;51.170;17.024;2023-04-25T05:44:35;7.28;;;5.38;;
35042;SDS011;21230;51.170;17.024;2023-04-25T05:47:01;9.00;;;6.03;;
35042;SDS011;21230;51.170;17.024;2023-04-25T05:49:29;10.73;;;5.78;;
35042;SDS011;21230;51.170;17.024;2023-04-25T05:51:55;12.65;;;5.80;;
35042;SDS011;21230;51.170;17.024;2023-04-25T05:54:21;12.63;;;6.65;;
35042;SDS011;21230;51.170;17.024;2023-04-25T05:56:53;7.70;;;5.55;;
35042;SDS011;21230;51.170;17.024;2023-04-25T05:59:22;8.63;;;5.55;;
35042;SDS011;21230;51.170;17.024;2023-04-25T06:01:48;11.50;;;5.35;;
35042;SDS011;21230;51.170;17.024;2023-04-25T06:04:14;8.25;;;5.18;;
35042;SDS011;21230;51.170;17.024;2023-04-25T06:06:39;12.32;;;5.85;;
35042;SDS011;21230;51.170;17.024;2023-04-25T06:09:05;10.45;;;5.93;;
35042;SDS011;21230;51.170;17.024;2023-04-25T06:11:31;8.13;;;5.60;;
35042;SDS011;21230;51.170;17.024;2023-04-25T06:13:57;10.43;;;4.72;;
35042;SDS011;21230;51.170;17.024;2023-04-25T06:16:23;12.48;;;6.22;;
35042;SDS011;21230;51.170;17.024;2023-04-25T06:18:50;11.30;;;5.40;;
35042;SDS011;21230;51.170;17.024;2023-04-25T06:21:16;8.70;;;5.32;;
35042;SDS011;21230;51.170;17.024;2023-04-25T06:23:42;9.48;;;5.65;;
35042;SDS011;21230;51.170;17.024;2023-04-25T06:26:08;11.57;;;5.93;;
35042;SDS011;21230;51.170;17.024;2023-04-25T06:28:34;7.78;;;5.05;;
35042;SDS011;21230;51.170;17.024;2023-04-25T06:31:00;11.07;;;6.13;;
35042;SDS011;21230;51.170;17.024;2023-04-25T06:33:26;8.77;;;5.97;;
35042;SDS011;21230;51.170;17.024;2023-04-25T06:35:56;10.57;;;5.72;;
35042;SDS011;21230;51.170;17.024;2023-04-25T06:38:21;8.13;;;5.28;;
35042;SDS011;21230;51.170;17.024;2023-04-25T06:40:47;9.70;;;5.97;;
35042;SDS011;21230;51.170;17.024;2023-04-25T06:43:13;7.07;;;5.38;;
35042;SDS011;21230;51.170;17.024;2023-04-25T06:45:39;10.35;;;6.03;;
35042;SDS011;21230;51.170;17.024;2023-04-25T06:48:05;12.15;;;5.03;;
35042;SDS011;21230;51.170;17.024;2023-04-25T06:50:33;13.10;;;5.57;;
35042;SDS011;21230;51.170;17.024;2023-04-25T06:52:59;10.03;;;5.37;;
35042;SDS011;21230;51.170;17.024;2023-04-25T06:55:26;10.98;;;6.70;;
35042;SDS011;21230;51.170;17.024;2023-04-25T06:57:52;6.88;;;4.68;;
35042;SDS011;21230;51.170;17.024;2023-04-25T07:00:18;11.07;;;5.60;;
35042;SDS011;21230;51.170;17.024;2023-04-25T07:02:45;6.72;;;5.28;;
35042;SDS011;21230;51.170;17.024;2023-04-25T07:05:11;9.20;;;5.53;;
35042;SDS011;21230;51.170;17.024;2023-04-25T07:07:37;10.10;;;5.88;;
35042;SDS011;21230;51.170;17.024;2023-04-25T07:10:03;5.57;;;3.97;;
35042;SDS011;21230;51.170;17.024;2023-04-25T07:12:29;8.68;;;4.38;;
35042;SDS011;21230;51.170;17.024;2023-04-25T07:14:55;12.85;;;5.25;;
35042;SDS011;21230;51.170;17.024;2023-04-25T07:17:21;9.02;;;5.13;;
35042;SDS011;21230;51.170;17.024;2023-04-25T07:19:47;10.30;;;4.40;;
35042;SDS011;21230;51.170;17.024;2023-04-25T07:22:12;6.00;;;3.53;;
35042;SDS011;21230;51.170;17.024;2023-04-25T07:24:38;8.45;;;5.30;;
35042;SDS011;21230;51.170;17.024;2023-04-25T07:27:04;7.93;;;4.60;;
35042;SDS011;21230;51.170;17.024;2023-04-25T07:29:31;7.70;;;4.53;;
35042;SDS011;21230;51.170;17.024;2023-04-25T07:31:57;9.38;;;4.45;;
35042;SDS011;21230;51.170;17.024;2023-04-25T07:34:23;10.27;;;5.53;;
35042;SDS011;21230;51.170;17.024;2023-04-25T07:36:49;8.35;;;4.55;;
35042;SDS011;21230;51.170;17.024;2023-04-25T07:39:17;11.98;;;4.70;;
35042;SDS011;21230;51.170;17.024;2023-04-25T07:41:48;6.78;;;4.40;;
35042;SDS011;21230;51.170;17.024;2023-04-25T07:44:17;16.08;;;5.68;;
35042;SDS011;21230;51.170;17.024;2023-04-25T07:47:10;10.95;;;5.20;;
35042;SDS011;21230;51.170;17.024;2023-04-25T07:49:36;11.55;;;5.35;;
35042;SDS011;21230;51.170;17.024;2023-04-25T07:52:02;20.10;;;5.43;;
35042;SDS011;21230;51.170;17.024;2023-04-25T07:54:32;14.38;;;5.25;;
35042;SDS011;21230;51.170;17.024;2023-04-25T07:57:07;8.90;;;4.90;;
35042;SDS011;21230;51.170;17.024;2023-04-25T07:59:33;9.25;;;4.63;;
35042;SDS011;21230;51.170;17.024;2023-04-25T08:02:08;8.95;;;4.95;;
35042;SDS011;21230;51.170;17.024;2023-04-25T08:04:34;8.02;;;5.68;;
35042;SDS011;21230;51.170;17.024;2023-04-25T08:07:00;15.43;;;6.20;;
35042;SDS011;21230;51.170;17.024;2023-04-25T08:09:26;9.00;;;6.25;;
35042;SDS011;21230;51.170;17.024;2023-04-25T08:11:52;9.98;;;7.15;;
35042;SDS011;21230;51.170;17.024;2023-04-25T08:14:17;12.52;;;8.10;;
35042;SDS011;21230;51.170;17.024;2023-04-25T08:16:43;13.43;;;7.50;;
35042;SDS011;21230;51.170;17.024;2023-04-25T08:19:09;12.30;;;7.40;;
35042;SDS011;21230;51.170;17.024;2023-04-25T08:21:38;15.93;;;6.97;;
35042;SDS011;21230;51.170;17.024;2023-04-25T08:24:04;14.15;;;8.15;;
35042;SDS011;21230;51.170;17.024;2023-04-25T08:26:30;11.93;;;7.13;;
35042;SDS011;21230;51.170;17.024;2023-04-25T08:28:57;9.88;;;7.00;;
35042;SDS011;21230;51.170;17.024;2023-04-25T08:31:22;15.82;;;7.10;;
35042;SDS011;21230;51.170;17.024;2023-04-25T08:33:48;24.90;;;8.38;;
35042;SDS011;21230;51.170;17.024;2023-04-25T08:36:16;10.77;;;6.95;;
35042;SDS011;21230;51.170;17.024;2023-04-25T08:38:43;12.10;;;6.70;;
35042;SDS011;21230;51.170;17.024;2023-04-25T08:41:09;12.48;;;7.75;;
35042;SDS011;21230;51.170;17.024;2023-04-25T08:43:40;12.68;;;8.75;;
35042;SDS011;21230;51.170;17.024;2023-04-25T08:46:09;13.38;;;7.63;;
35042;SDS011;21230;51.170;17.024;2023-04-25T08:48:37;11.02;;;7.40;;
35042;SDS011;21230;51.170;17.024;2023-04-25T08:51:05;20.00;;;7.22;;
35042;SDS011;21230;51.170;17.024;2023-04-25T08:56:00;11.75;;;7.35;;
35042;SDS011;21230;51.170;17.024;2023-04-25T08:58:27;14.63;;;7.03;;
35042;SDS011;21230;51.170;17.024;2023-04-25T09:00:53;13.68;;;6.85;;
35042;SDS011;21230;51.170;17.024;2023-04-25T09:03:19;14.00;;;6.93;;
35042;SDS011;21230;51.170;17.024;2023-04-25T09:05:45;18.20;;;8.02;;
35042;SDS011;21230;51.170;17.024;2023-04-25T09:08:12;16.08;;;8.10;;
35042;SDS011;21230;51.170;17.024;2023-04-25T09:10:38;11.95;;;6.90;;
35042;SDS011;21230;51.170;17.024;2023-04-25T09:13:08;12.27;;;6.93;;
35042;SDS011;21230;51.170;17.024;2023-04-25T09:15:48;10.70;;;7.32;;
35042;SDS011;21230;51.170;17.024;2023-04-25T09:18:25;13.90;;;8.10;;
35042;SDS011;21230;51.170;17.024;2023-04-25T09:20:55;14.60;;;6.85;;
35042;SDS011;21230;51.170;17.024;2023-04-25T09:23:23;10.25;;;5.97;;
35042;SDS011;21230;51.170;17.024;2023-04-25T09:25:49;12.88;;;7.20;;
35042;SDS011;21230;51.170;17.024;2023-04-25T09:28:16;9.93;;;6.03;;
35042;SDS011;21230;51.170;17.024;2023-04-25T09:31:03;10.57;;;7.80;;
35042;SDS011;21230;51.170;17.024;2023-04-25T09:33:45;19.23;;;7.00;;
35042;SDS011;21230;51.170;17.024;2023-04-25T09:36:47;9.32;;;7.05;;
35042;SDS011;21230;51.170;17.024;2023-04-25T09:42:41;13.55;;;6.55;;
35042;SDS011;21230;51.170;17.024;2023-04-25T09:45:40;13.65;;;6.60;;
35042;SDS011;21230;51.170;17.024;2023-04-25T09:48:49;10.40;;;6.28;;
35042;SDS011;21230;51.170;17.024;2023-04-25T09:55:02;13.52;;;6.22;;
35042;SDS011;21230;51.170;17.024;2023-04-25T09:57:55;13.10;;;7.65;;
35042;SDS011;21230;51.170;17.024;2023-04-25T10:00:54;8.98;;;5.90;;
35042;SDS011;21230;51.170;17.024;2023-04-25T10:03:35;10.07;;;6.53;;
35042;SDS011;21230;51.170;17.024;2023-04-25T10:06:31;7.05;;;5.22;;
35042;SDS011;21230;51.170;17.024;2023-04-25T10:09:05;10.70;;;6.78;;
35042;SDS011;21230;51.170;17.024;2023-04-25T10:11:45;8.95;;;6.28;;
35042;SDS011;21230;51.170;17.024;2023-04-25T10:14:19;10.35;;;6.15;;
35042;SDS011;21230;51.170;17.024;2023-04-25T10:17:21;9.48;;;5.88;;
35042;SDS011;21230;51.170;17.024;2023-04-25T10:19:57;5.72;;;5.07;;
35042;SDS011;21230;51.170;17.024;2023-04-25T10:22:48;6.90;;;5.18;;
35042;SDS011;21230;51.170;17.024;2023-04-25T10:25:56;8.65;;;5.53;;
35042;SDS011;21230;51.170;17.024;2023-04-25T10:31:59;4.45;;;4.03;;
35042;SDS011;21230;51.170;17.024;2023-04-25T10:34:45;6.97;;;4.60;;
35042;SDS011;21230;51.170;17.024;2023-04-25T10:37:13;7.78;;;4.65;;
35042;SDS011;21230;51.170;17.024;2023-04-25T10:40:13;10.93;;;5.18;;
35042;SDS011;21230;51.170;17.024;2023-04-25T10:42:51;5.05;;;3.80;;
35042;SDS011;21230;51.170;17.024;2023-04-25T10:45:19;4.65;;;4.03;;
35042;SDS011;21230;51.170;17.024;2023-04-25T10:47:54;6.60;;;4.68;;
35042;SDS011;21230;51.170;17.024;2023-04-25T10:50:36;7.45;;;4.20;;
35042;SDS011;21230;51.170;17.024;2023-04-25T10:53:20;6.15;;;4.88;;
35042;SDS011;21230;51.170;17.024;2023-04-25T10:56:21;10.68;;;4.95;;
35042;SDS011;21230;51.170;17.024;2023-04-25T10:59:33;10.77;;;4.78;;
35042;SDS011;21230;51.170;17.024;2023-04-25T11:01:59;6.30;;;4.75;;
35042;SDS011;21230;51.170;17.024;2023-04-25T11:04:36;4.85;;;4.38;;
35042;SDS011;21230;51.170;17.024;2023-04-25T11:09:48;8.38;;;5.15;;
35042;SDS011;21230;51.170;17.024;2023-04-25T11:12:15;7.75;;;5.68;;
35042;SDS011;21230;51.170;17.024;2023-04-25T11:14:50;5.45;;;4.90;;
35042;SDS011;21230;51.170;17.024;2023-04-25T11:17:28;9.17;;;5.13;;
35042;SDS011;21230;51.170;17.024;2023-04-25T11:19:55;10.25;;;3.25;;
35042;SDS011;21230;51.170;17.024;2023-04-25T11:22:22;4.20;;;2.72;;
35042;SDS011;21230;51.170;17.024;2023-04-25T11:24:51;9.20;;;3.60;;
35042;SDS011;21230;51.170;17.024;2023-04-25T11:27:21;2.85;;;2.15;;
35042;SDS011;21230;51.170;17.024;2023-04-25T11:30:09;5.55;;;3.13;;
35042;SDS011;21230;51.170;17.024;2023-04-25T11:32:38;2.90;;;1.95;;
35042;SDS011;21230;51.170;17.024;2023-04-25T11:35:07;4.72;;;2.65;;
35042;SDS011;21230;51.170;17.024;2023-04-25T11:37:33;5.70;;;2.67;;
35042;SDS011;21230;51.170;17.024;2023-04-25T11:39:59;6.15;;;2.80;;
35042;SDS011;21230;51.170;17.024;2023-04-25T11:42:25;3.45;;;2.22;;
35042;SDS011;21230;51.170;17.024;2023-04-25T11:44:51;5.03;;;1.95;;
35042;SDS011;21230;51.170;17.024;2023-04-25T11:47:17;5.47;;;2.10;;
35042;SDS011;21230;51.170;17.024;2023-04-25T11:49:45;4.32;;;1.63;;
35042;SDS011;21230;51.170;17.024;2023-04-25T11:52:11;1.63;;;1.50;;
35042;SDS011;21230;51.170;17.024;2023-04-25T11:54:37;13.77;;;3.00;;
35042;SDS011;21230;51.170;17.024;2023-04-25T11:57:03;2.33;;;2.00;;
35042;SDS011;21230;51.170;17.024;2023-04-25T11:59:29;19.98;;;3.35;;
35042;SDS011;21230;51.170;17.024;2023-04-25T12:01:57;15.02;;;2.53;;
35042;SDS011;21230;51.170;17.024;2023-04-25T12:04:26;3.30;;;1.92;;
35042;SDS011;21230;51.170;17.024;2023-04-25T12:06:57;6.85;;;2.25;;
35042;SDS011;21230;51.170;17.024;2023-04-25T12:09:32;3.15;;;2.17;;
35042;SDS011;21230;51.170;17.024;2023-04-25T12:11:59;3.88;;;2.40;;
35042;SDS011;21230;51.170;17.024;2023-04-25T12:14:31;10.40;;;2.72;;
35042;SDS011;21230;51.170;17.024;2023-04-25T12:16:59;2.08;;;1.65;;
35042;SDS011;21230;51.170;17.024;2023-04-25T12:19:31;4.30;;;2.10;;
35042;SDS011;21230;51.170;17.024;2023-04-25T12:21:59;3.20;;;2.15;;
35042;SDS011;21230;51.170;17.024;2023-04-25T12:24:44;8.63;;;2.97;;
35042;SDS011;21230;51.170;17.024;2023-04-25T12:27:10;3.90;;;1.98;;
35042;SDS011;21230;51.170;17.024;2023-04-25T12:29:49;3.90;;;2.40;;
35042;SDS011;21230;51.170;17.024;2023-04-25T12:32:16;2.67;;;2.00;;
35042;SDS011;21230;51.170;17.024;2023-04-25T12:34:45;6.70;;;1.80;;
35042;SDS011;21230;51.170;17.024;2023-04-25T12:37:11;4.38;;;2.05;;
35042;SDS011;21230;51.170;17.024;2023-04-25T12:39:40;12.50;;;2.55;;
35042;SDS011;21230;51.170;17.024;2023-04-25T12:42:10;6.43;;;2.20;;
35042;SDS011;21230;51.170;17.024;2023-04-25T12:45:13;4.32;;;2.22;;
35042;SDS011;21230;51.170;17.024;2023-04-25T12:47:42;3.95;;;2.88;;
35042;SDS011;21230;51.170;17.024;2023-04-25T12:50:08;2.80;;;1.92;;
35042;SDS011;21230;51.170;17.024;2023-04-25T12:52:39;3.97;;;2.95;;
35042;SDS011;21230;51.170;17.024;2023-04-25T12:55:06;5.70;;;1.75;;
35042;SDS011;21230;51.170;17.024;2023-04-25T12:57:32;3.28;;;1.75;;
35042;SDS011;21230;51.170;17.024;2023-04-25T12:59:58;2.95;;;1.92;;
35042;SDS011;21230;51.170;17.024;2023-04-25T13:02:24;3.88;;;2.28;;
35042;SDS011;21230;51.170;17.024;2023-04-25T13:04:52;4.60;;;2.75;;
35042;SDS011;21230;51.170;17.024;2023-04-25T13:07:21;10.20;;;2.53;;
35042;SDS011;21230;51.170;17.024;2023-04-25T13:09:47;3.90;;;2.50;;
35042;SDS011;21230;51.170;17.024;2023-04-25T13:12:13;2.25;;;1.67;;
35042;SDS011;21230;51.170;17.024;2023-04-25T13:14:47;8.45;;;2.88;;
35042;SDS011;21230;51.170;17.024;2023-04-25T13:17:15;4.40;;;2.53;;
35042;SDS011;21230;51.170;17.024;2023-04-25T13:19:40;3.58;;;2.35;;
35042;SDS011;21230;51.170;17.024;2023-04-25T13:22:06;2.78;;;1.98;;
35042;SDS011;21230;51.170;17.024;2023-04-25T13:24:32;9.77;;;2.72;;
35042;SDS011;21230;51.170;17.024;2023-04-25T13:26:59;4.22;;;2.35;;
35042;SDS011;21230;51.170;17.024;2023-04-25T13:29:26;2.00;;;1.55;;
35042;SDS011;21230;51.170;17.024;2023-04-25T13:31:57;3.47;;;2.13;;
35042;SDS011;21230;51.170;17.024;2023-04-25T13:34:46;7.68;;;2.83;;
35042;SDS011;21230;51.170;17.024;2023-04-25T13:37:18;6.38;;;2.15;;
35042;SDS011;21230;51.170;17.024;2023-04-25T13:40:11;5.10;;;2.40;;
35042;SDS011;21230;51.170;17.024;2023-04-25T13:42:40;2.70;;;1.80;;
35042;SDS011;21230;51.170;17.024;2023-04-25T13:45:06;2.83;;;2.28;;
35042;SDS011;21230;51.170;17.024;2023-04-25T13:47:36;4.53;;;2.38;;
35042;SDS011;21230;51.170;17.024;2023-04-25T13:50:05;3.60;;;2.45;;
35042;SDS011;21230;51.170;17.024;2023-04-25T13:52:35;6.93;;;2.78;;
35042;SDS011;21230;51.170;17.024;2023-04-25T13:55:09;2.78;;;1.92;;
35042;SDS011;21230;51.170;17.024;2023-04-25T13:57:38;6.68;;;2.17;;
35042;SDS011;21230;51.170;17.024;2023-04-25T14:00:39;3.35;;;1.73;;
35042;SDS011;21230;51.170;17.024;2023-04-25T14:03:10;2.38;;;1.85;;
35042;SDS011;21230;51.170;17.024;2023-04-25T14:05:36;6.05;;;2.63;;
35042;SDS011;21230;51.170;17.024;2023-04-25T14:08:15;11.05;;;2.72;;
35042;SDS011;21230;51.170;17.024;2023-04-25T14:10:41;4.13;;;1.90;;
35042;SDS011;21230;51.170;17.024;2023-04-25T14:13:07;7.95;;;2.08;;
35042;SDS011;21230;51.170;17.024;2023-04-25T14:15:33;4.22;;;2.30;;
35042;SDS011;21230;51.170;17.024;2023-04-25T14:18:00;4.88;;;2.10;;
35042;SDS011;21230;51.170;17.024;2023-04-25T14:20:26;3.95;;;2.00;;
35042;SDS011;21230;51.170;17.024;2023-04-25T14:22:57;4.20;;;2.30;;
35042;SDS011;21230;51.170;17.024;2023-04-25T14:25:28;7.57;;;2.58;;
35042;SDS011;21230;51.170;17.024;2023-04-25T14:27:58;2.53;;;2.20;;
35042;SDS011;21230;51.170;17.024;2023-04-25T14:30:27;3.67;;;2.60;;
35042;SDS011;21230;51.170;17.024;2023-04-25T14:32:57;3.38;;;1.73;;
35042;SDS011;21230;51.170;17.024;2023-04-25T14:35:23;3.33;;;2.00;;
35042;SDS011;21230;51.170;17.024;2023-04-25T14:37:52;2.25;;;1.52;;
35042;SDS011;21230;51.170;17.024;2023-04-25T14:40:19;2.15;;;1.95;;
35042;SDS011;21230;51.170;17.024;2023-04-25T14:42:47;6.88;;;2.55;;
35042;SDS011;21230;51.170;17.024;2023-04-25T14:45:14;3.17;;;2.47;;
35042;SDS011;21230;51.170;17.024;2023-04-25T14:47:41;3.42;;;2.45;;
35042;SDS011;21230;51.170;17.024;2023-04-25T14:50:09;8.05;;;2.92;;
35042;SDS011;21230;51.170;17.024;2023-04-25T14:52:49;3.10;;;2.38;;
35042;SDS011;21230;51.170;17.024;2023-04-25T14:55:26;2.60;;;2.33;;
35042;SDS011;21230;51.170;17.024;2023-04-25T14:57:55;6.13;;;2.42;;
35042;SDS011;21230;51.170;17.024;2023-04-25T15:00:27;6.90;;;2.17;;
35042;SDS011;21230;51.170;17.024;2023-04-25T15:02:53;3.53;;;3.05;;
35042;SDS011;21230;51.170;17.024;2023-04-25T15:05:19;4.70;;;2.45;;
35042;SDS011;21230;51.170;17.024;2023-04-25T15:07:46;2.80;;;1.80;;
35042;SDS011;21230;51.170;17.024;2023-04-25T15:10:14;2.03;;;1.63;;